Time;durP1;ratioP1;P1;durP2;ratioP2;P2;SDS_P1;SDS_P2;PMS_P1;PMS_P2;Temp;Humidity;BMP_temperature;BMP_pressure;BME280_temperature;BME280_humidity;BME280_pressure;Samples;Min_cycle;Max_cycle;Signal;HPM_P1;HPM_P2
2021/04/23 00:00:38;;;;;;;14.63;3.70;;;5.50;99.90;;;;;;5092862;28;20233;-77
2021/04/23 00:03:12;;;;;;;11.40;3.77;;;5.50;99.90;;;;;;5092722;28;20220;-78
2021/04/23 00:05:40;;;;;;;11.33;3.77;;;5.40;99.90;;;;;;5092843;28;20542;-78
2021/04/23 00:08:08;;;;;;;17.27;4.17;;;5.30;99.90;;;;;;5092682;28;20657;-77
2021/04/23 00:10:34;;;;;;;20.90;4.17;;;5.30;99.90;;;;;;5092596;28;20216;-78
2021/04/23 00:13:01;;;;;;;9.70;3.47;;;5.30;99.90;;;;;;5093014;28;20201;-79
2021/04/23 00:15:27;;;;;;;14.00;3.50;;;5.30;99.90;;;;;;5092643;28;20200;-78
2021/04/23 00:17:54;;;;;;;18.23;3.70;;;5.20;99.90;;;;;;5092897;28;20708;-78
2021/04/23 00:20:22;;;;;;;23.70;4.37;;;5.20;99.90;;;;;;5092811;28;20199;-78
2021/04/23 00:22:48;;;;;;;13.53;4.47;;;5.10;99.90;;;;;;5092600;28;20201;-78
2021/04/23 00:25:25;;;;;;;15.13;4.03;;;5.20;99.90;;;;;;5092652;28;20616;-78
2021/04/23 00:27:52;;;;;;;14.20;3.93;;;5.20;99.90;;;;;;5093003;28;20200;-77
2021/04/23 00:30:21;;;;;;;17.23;4.27;;;5.20;99.90;;;;;;5092566;28;20569;-77
2021/04/23 00:32:53;;;;;;;16.60;4.70;;;5.30;99.90;;;;;;5092573;28;20279;-78
2021/04/23 00:35:21;;;;;;;12.80;4.33;;;5.20;99.90;;;;;;5092842;28;20200;-78
2021/04/23 00:37:48;;;;;;;12.93;4.83;;;5.20;99.90;;;;;;5092325;28;20196;-78
2021/04/23 00:40:29;;;;;;;12.53;5.43;;;5.20;99.90;;;;;;5095825;28;20292;-77
2021/04/23 00:42:56;;;;;;;14.07;5.17;;;5.00;99.90;;;;;;5096922;28;20285;-78
2021/04/23 00:45:25;;;;;;;17.63;5.63;;;5.00;99.90;;;;;;5096509;28;20633;-77
2021/04/23 00:48:00;;;;;;;18.63;5.80;;;5.10;99.90;;;;;;5096564;28;20625;-77
2021/04/23 00:50:29;;;;;;;18.73;6.30;;;5.10;99.90;;;;;;5096498;28;20229;-78
2021/04/23 00:52:56;;;;;;;17.13;6.57;;;5.00;99.90;;;;;;5096752;28;20302;-78
2021/04/23 00:55:23;;;;;;;19.50;6.63;;;5.00;99.90;;;;;;5096599;28;20218;-78
2021/04/23 00:57:50;;;;;;;26.10;8.20;;;4.90;99.90;;;;;;5096463;28;20300;-78
2021/04/23 01:00:17;;;;;;;25.17;7.33;;;5.00;99.90;;;;;;5096511;28;20229;-76
2021/04/23 01:02:44;;;;;;;20.67;8.13;;;4.90;99.90;;;;;;5096149;28;20300;-77
2021/04/23 01:05:11;;;;;;;19.23;8.17;;;4.80;99.90;;;;;;5096812;28;20284;-77
2021/04/23 01:07:42;;;;;;;18.57;9.00;;;4.70;99.90;;;;;;5096295;28;20599;-78
2021/04/23 01:10:10;;;;;;;18.43;7.80;;;4.80;99.90;;;;;;5096299;28;20233;-77
2021/04/23 01:12:37;;;;;;;17.83;8.80;;;4.80;99.90;;;;;;5096049;28;20247;-78
2021/04/23 01:15:04;;;;;;;18.77;7.37;;;4.70;99.90;;;;;;5096200;28;20192;-77
2021/04/23 01:17:30;;;;;;;18.27;6.67;;;4.70;99.90;;;;;;5095942;28;20206;-78
2021/04/23 01:19:57;;;;;;;21.37;7.40;;;4.60;99.90;;;;;;5095962;28;20201;-78
2021/04/23 01:22:24;;;;;;;17.27;5.90;;;4.60;99.90;;;;;;5095971;28;20236;-77
2021/04/23 01:24:51;;;;;;;19.93;6.10;;;4.70;99.90;;;;;;5096196;28;20202;-78
2021/04/23 01:27:17;;;;;;;15.30;5.43;;;4.70;99.90;;;;;;5096907;28;20259;-78
2021/04/23 01:29:43;;;;;;;16.07;5.40;;;4.70;99.90;;;;;;5095538;28;20305;-78
2021/04/23 01:32:10;;;;;;;16.60;5.50;;;4.60;99.90;;;;;;5096011;28;20231;-78
2021/04/23 01:34:39;;;;;;;22.17;5.70;;;4.50;99.90;;;;;;5095842;28;20648;-78
2021/04/23 01:37:06;;;;;;;13.43;5.70;;;4.40;99.90;;;;;;5095637;28;20220;-79
2021/04/23 01:39:37;;;;;;;17.83;5.50;;;4.30;99.90;;;;;;5095461;28;20633;-78
2021/04/23 01:42:06;;;;;;;17.83;5.30;;;4.20;99.90;;;;;;5095463;28;20274;-78
2021/04/23 01:44:33;;;;;;;16.40;5.57;;;4.20;99.90;;;;;;5095369;28;20283;-78
2021/04/23 01:47:01;;;;;;;22.03;5.03;;;4.10;99.90;;;;;;5095762;28;20288;-79
2021/04/23 01:49:27;;;;;;;15.37;5.10;;;4.20;99.90;;;;;;5096836;28;20220;-78
2021/04/23 01:51:56;;;;;;;9.60;4.90;;;4.10;99.90;;;;;;5095655;28;20196;-78
2021/04/23 01:54:23;;;;;;;11.53;4.90;;;4.10;99.90;;;;;;5095965;28;20203;-79
2021/04/23 01:56:51;;;;;;;13.30;5.53;;;4.10;99.90;;;;;;5095759;28;20197;-78
2021/04/23 01:59:18;;;;;;;16.57;5.10;;;4.00;99.90;;;;;;5096385;28;20203;-78
2021/04/23 02:01:45;;;;;;;20.17;5.57;;;4.10;99.90;;;;;;5095920;28;20207;-78
2021/04/23 02:04:14;;;;;;;18.47;4.87;;;4.00;99.90;;;;;;5095637;28;20564;-78
2021/04/23 02:06:41;;;;;;;18.83;5.70;;;4.00;99.90;;;;;;5096002;28;20247;-77
2021/04/23 02:09:09;;;;;;;16.90;5.00;;;4.00;99.90;;;;;;5095533;28;20287;-78
2021/04/23 02:11:36;;;;;;;18.03;4.97;;;4.00;99.90;;;;;;5095365;28;20196;-78
2021/04/23 02:14:04;;;;;;;15.33;5.27;;;3.90;99.90;;;;;;5095613;28;20203;-77
2021/04/23 02:16:31;;;;;;;18.77;5.40;;;3.70;99.90;;;;;;5095232;28;20621;-78
2021/04/23 02:18:58;;;;;;;14.37;5.33;;;3.80;99.90;;;;;;5094888;28;20557;-78
2021/04/23 02:21:25;;;;;;;21.60;5.90;;;3.90;99.90;;;;;;5094820;28;20287;-78
2021/04/23 02:23:52;;;;;;;19.73;5.90;;;4.00;99.90;;;;;;5095010;28;20596;-79
2021/04/23 02:26:21;;;;;;;15.77;5.70;;;4.00;99.90;;;;;;5094749;28;20646;-78
2021/04/23 02:28:49;;;;;;;15.07;5.20;;;3.90;99.90;;;;;;5095075;28;20210;-79
2021/04/23 02:31:20;;;;;;;15.90;5.47;;;4.00;99.90;;;;;;5094607;28;20232;-79
2021/04/23 02:33:48;;;;;;;15.37;6.00;;;4.00;99.90;;;;;;5094554;28;20556;-78
2021/04/23 02:36:15;;;;;;;18.70;5.70;;;4.00;99.90;;;;;;5094463;28;20253;-78
2021/04/23 02:38:42;;;;;;;15.87;5.90;;;4.00;99.90;;;;;;5094416;28;20345;-79
2021/04/23 02:41:09;;;;;;;18.10;6.27;;;4.00;99.90;;;;;;5094849;28;20204;-78
2021/04/23 02:43:38;;;;;;;11.90;6.07;;;3.90;99.90;;;;;;5094452;28;20203;-78
2021/04/23 02:46:05;;;;;;;17.10;7.00;;;4.00;99.90;;;;;;5094352;28;20532;-79
2021/04/23 02:48:36;;;;;;;17.67;6.40;;;3.90;99.90;;;;;;5094329;28;20298;-78
2021/04/23 02:51:05;;;;;;;13.00;5.83;;;3.80;99.90;;;;;;5094172;28;20274;-78
2021/04/23 02:53:32;;;;;;;16.23;7.03;;;3.90;99.90;;;;;;5094086;28;20784;-78
2021/04/23 02:55:59;;;;;;;20.53;7.40;;;3.90;99.90;;;;;;5094019;28;20791;-78
2021/04/23 02:58:28;;;;;;;19.77;7.00;;;3.90;99.90;;;;;;5094240;28;20287;-79
2021/04/23 03:00:56;;;;;;;18.20;6.87;;;3.70;99.90;;;;;;5094097;28;20334;-79
2021/04/23 03:03:23;;;;;;;28.13;6.77;;;3.70;99.90;;;;;;5093764;28;20298;-77
2021/04/23 03:05:51;;;;;;;22.60;7.50;;;3.70;99.90;;;;;;5093733;28;20211;-78
2021/04/23 03:08:19;;;;;;;19.83;7.23;;;3.70;99.90;;;;;;5093846;28;20716;-77
2021/04/23 03:10:48;;;;;;;18.43;7.27;;;3.70;99.90;;;;;;5093893;28;20322;-77
2021/04/23 03:13:19;;;;;;;17.13;7.23;;;3.80;99.90;;;;;;5093994;28;20201;-78
2021/04/23 03:15:45;;;;;;;20.13;7.20;;;3.80;99.90;;;;;;5094056;28;20204;-78
2021/04/23 03:18:15;;;;;;;19.73;7.27;;;3.70;99.90;;;;;;5093912;28;20254;-78
2021/04/23 03:20:42;;;;;;;22.93;7.43;;;3.60;99.90;;;;;;5093763;28;20295;-78
2021/04/23 03:23:09;;;;;;;20.60;7.00;;;3.50;99.90;;;;;;5093901;28;20201;-78
2021/04/23 03:25:37;;;;;;;26.87;8.07;;;3.30;99.90;;;;;;5093787;28;20206;-78
2021/04/23 03:28:04;;;;;;;25.63;8.13;;;3.40;99.90;;;;;;5093458;28;20225;-78
2021/04/23 03:30:33;;;;;;;24.17;7.80;;;3.40;99.90;;;;;;5093258;28;20224;-79
2021/04/23 03:33:00;;;;;;;17.00;7.50;;;3.40;99.90;;;;;;5093176;28;20658;-78
2021/04/23 03:35:27;;;;;;;17.60;7.93;;;3.50;99.90;;;;;;5093635;28;20197;-78
2021/04/23 03:37:54;;;;;;;22.27;8.27;;;3.60;99.90;;;;;;5093493;28;20285;-77
2021/04/23 03:40:23;;;;;;;25.73;6.97;;;3.50;99.90;;;;;;5093429;28;20204;-78
2021/04/23 03:42:49;;;;;;;27.97;8.17;;;3.50;99.90;;;;;;5093166;28;20620;-78
2021/04/23 03:45:19;;;;;;;26.20;8.70;;;3.40;99.90;;;;;;5093212;28;20219;-78
2021/04/23 03:47:46;;;;;;;20.97;8.17;;;3.40;99.90;;;;;;5093133;28;20292;-78
2021/04/23 03:50:15;;;;;;;29.63;9.47;;;3.50;99.90;;;;;;5093065;28;20232;-78
2021/04/23 03:52:42;;;;;;;30.27;10.40;;;3.60;99.90;;;;;;5093065;28;20198;-79
2021/04/23 03:55:12;;;;;;;29.57;9.67;;;3.50;99.90;;;;;;5093262;28;20200;-78
2021/04/23 03:57:40;;;;;;;27.13;8.90;;;3.40;99.90;;;;;;5093151;28;20256;-78
2021/04/23 04:00:08;;;;;;;27.57;8.63;;;3.30;99.90;;;;;;5092893;28;20573;-79
2021/04/23 04:02:35;;;;;;;32.13;9.77;;;3.30;99.90;;;;;;5092802;28;20267;-79
2021/04/23 04:05:01;;;;;;;28.10;8.60;;;3.30;99.90;;;;;;5092814;28;20561;-78
2021/04/23 04:07:28;;;;;;;21.67;8.33;;;3.30;99.90;;;;;;5092833;28;20212;-78
2021/04/23 04:09:54;;;;;;;27.10;8.83;;;3.20;99.90;;;;;;5092820;28;20229;-78
2021/04/23 04:12:20;;;;;;;18.30;8.10;;;3.20;99.90;;;;;;5092863;28;20296;-78
2021/04/23 04:14:48;;;;;;;30.80;9.47;;;3.20;99.90;;;;;;5092330;28;20576;-79
2021/04/23 04:17:14;;;;;;;24.50;8.23;;;3.20;99.90;;;;;;5092926;28;20199;-79
2021/04/23 04:19:40;;;;;;;20.87;8.63;;;3.20;99.90;;;;;;5092717;28;20316;-80
2021/04/23 04:22:07;;;;;;;23.23;9.27;;;3.10;99.90;;;;;;5092805;28;20192;-78
2021/04/23 04:24:33;;;;;;;18.67;8.10;;;3.00;99.90;;;;;;5092615;28;20747;-78
2021/04/23 04:27:00;;;;;;;28.80;9.70;;;2.90;99.90;;;;;;5092643;28;20749;-79
2021/04/23 04:29:26;;;;;;;26.03;9.80;;;3.00;99.90;;;;;;5092338;28;20314;-78
2021/04/23 04:31:53;;;;;;;34.00;9.73;;;3.10;99.90;;;;;;5093383;28;20318;-78
2021/04/23 04:34:20;;;;;;;26.03;9.43;;;3.00;99.90;;;;;;5092822;28;20195;-77
2021/04/23 04:36:46;;;;;;;27.50;9.73;;;3.10;99.90;;;;;;5092571;28;20203;-77
2021/04/23 04:39:13;;;;;;;23.30;9.90;;;3.10;99.90;;;;;;5091861;28;20658;-78
2021/04/23 04:41:40;;;;;;;29.00;10.40;;;3.20;99.90;;;;;;5092845;28;20254;-78
2021/04/23 04:44:06;;;;;;;31.23;10.23;;;3.30;99.90;;;;;;5092347;28;20658;-79
2021/04/23 04:46:33;;;;;;;30.13;11.10;;;3.30;99.90;;;;;;5084781;28;20666;-79
2021/04/23 04:49:01;;;;;;;41.60;11.23;;;3.30;99.90;;;;;;5089543;28;20203;-79
2021/04/23 04:51:27;;;;;;;43.83;11.97;;;3.30;99.90;;;;;;5084461;28;20272;-79
2021/04/23 04:53:54;;;;;;;29.67;12.13;;;3.30;99.90;;;;;;5079462;28;20231;-79
2021/04/23 04:56:20;;;;;;;31.83;13.00;;;3.40;99.90;;;;;;5079825;28;20192;-78
2021/04/23 04:58:47;;;;;;;53.17;14.37;;;3.50;99.90;;;;;;5075285;28;20204;-79
2021/04/23 05:01:15;;;;;;;41.47;13.83;;;3.60;99.90;;;;;;5071769;28;20201;-78
2021/04/23 05:03:42;;;;;;;28.47;12.43;;;3.70;99.90;;;;;;5072058;28;20211;-79
2021/04/23 05:06:11;;;;;;;38.40;12.07;;;3.70;99.90;;;;;;5072262;28;20559;-78
2021/04/23 05:08:37;;;;;;;27.63;11.03;;;3.90;99.90;;;;;;5071993;28;20560;-78
2021/04/23 05:11:04;;;;;;;27.07;10.47;;;4.10;99.90;;;;;;5071152;28;20623;-80
2021/04/23 05:13:30;;;;;;;23.37;8.93;;;4.40;99.90;;;;;;5073006;28;20292;-78
2021/04/23 05:15:57;;;;;;;25.67;9.27;;;4.50;99.90;;;;;;5071929;28;20558;-79
2021/04/23 05:18:24;;;;;;;28.20;8.87;;;4.60;99.90;;;;;;5077935;28;20215;-78
2021/04/23 05:20:50;;;;;;;26.70;8.43;;;4.90;99.90;;;;;;5076522;28;20197;-79
2021/04/23 05:23:17;;;;;;;26.23;8.43;;;5.40;99.90;;;;;;5083319;28;20208;-79
2021/04/23 05:25:44;;;;;;;20.33;8.03;;;6.00;99.90;;;;;;5087677;28;20327;-78
2021/04/23 05:28:10;;;;;;;20.00;7.50;;;6.70;99.90;;;;;;5084416;28;20269;-78
2021/04/23 05:30:38;;;;;;;16.43;7.43;;;7.30;99.90;;;;;;5091526;28;20238;-79
2021/04/23 05:33:06;;;;;;;20.70;7.37;;;7.80;99.90;;;;;;5078336;28;20199;-79
2021/04/23 05:35:32;;;;;;;19.23;7.50;;;7.60;99.90;;;;;;5086569;28;20200;-78
2021/04/23 05:38:00;;;;;;;16.07;7.40;;;7.20;99.90;;;;;;5095668;28;20206;-79
2021/04/23 05:40:30;;;;;;;21.87;7.33;;;6.60;99.90;;;;;;5090898;28;20700;-79
2021/04/23 05:42:57;;;;;;;22.30;7.80;;;6.20;99.90;;;;;;5094973;28;20205;-79
2021/04/23 05:45:24;;;;;;;22.73;8.37;;;5.90;99.90;;;;;;5095249;28;20212;-75
2021/04/23 05:47:51;;;;;;;18.63;7.43;;;5.60;99.90;;;;;;5084670;28;20196;-76
2021/04/23 05:50:18;;;;;;;19.97;7.77;;;5.40;99.90;;;;;;5083877;28;20248;-76
2021/04/23 05:52:45;;;;;;;19.87;8.33;;;5.50;99.90;;;;;;5084849;28;20283;-77
2021/04/23 05:55:14;;;;;;;23.63;8.20;;;5.40;99.90;;;;;;5083714;28;20558;-77
2021/04/23 05:57:42;;;;;;;17.83;7.60;;;5.30;99.90;;;;;;5084052;28;20203;-75
2021/04/23 06:00:11;;;;;;;19.87;7.47;;;5.40;99.90;;;;;;5084662;28;20305;-76
2021/04/23 06:02:38;;;;;;;25.57;7.80;;;5.40;99.90;;;;;;5085255;28;20206;-76
2021/04/23 06:05:05;;;;;;;19.80;7.33;;;5.40;99.90;;;;;;5079850;28;20554;-77
2021/04/23 06:07:32;;;;;;;18.80;7.50;;;5.40;99.90;;;;;;5074567;28;20207;-75
2021/04/23 06:09:58;;;;;;;18.23;7.80;;;5.40;99.90;;;;;;5089806;28;20247;-80
2021/04/23 06:12:25;;;;;;;19.33;7.03;;;5.30;99.90;;;;;;5094676;28;20589;-81
2021/04/23 06:14:52;;;;;;;23.50;7.60;;;5.30;99.90;;;;;;5094796;28;20286;-80
2021/04/23 06:17:18;;;;;;;25.87;7.73;;;5.50;99.90;;;;;;5094534;28;20205;-80
2021/04/23 06:19:44;;;;;;;20.83;6.50;;;5.50;99.90;;;;;;5094206;28;20200;-80
2021/04/23 06:22:11;;;;;;;19.40;7.63;;;5.50;99.90;;;;;;5093264;28;20226;-81
2021/04/23 06:24:37;;;;;;;23.17;7.23;;;5.50;99.90;;;;;;5093896;28;20222;-80
2021/04/23 06:27:05;;;;;;;26.97;7.13;;;5.50;99.90;;;;;;5093614;28;20646;-79
2021/04/23 06:29:33;;;;;;;19.70;6.70;;;5.60;99.90;;;;;;5093678;28;20192;-80
2021/04/23 06:32:01;;;;;;;17.87;6.87;;;5.60;99.90;;;;;;5081026;28;20192;-80
2021/04/23 06:34:28;;;;;;;24.10;7.10;;;5.70;99.90;;;;;;5076129;28;20194;-81
2021/04/23 06:36:54;;;;;;;19.23;7.20;;;5.70;99.90;;;;;;5074469;28;20652;-82
2021/04/23 06:39:20;;;;;;;20.37;6.93;;;5.70;99.90;;;;;;5074067;28;20276;-81
2021/04/23 06:41:47;;;;;;;24.57;6.63;;;5.70;99.90;;;;;;5074368;28;20209;-80
2021/04/23 06:44:14;;;;;;;14.73;6.03;;;5.90;99.90;;;;;;5082797;28;20343;-81
2021/04/23 06:46:41;;;;;;;24.33;6.30;;;6.00;99.90;;;;;;5080467;28;20240;-80
2021/04/23 06:49:08;;;;;;;15.57;6.00;;;6.10;99.90;;;;;;5086027;28;20208;-81
2021/04/23 06:51:37;;;;;;;12.70;6.43;;;6.10;99.90;;;;;;5094382;28;20222;-81
2021/04/23 06:54:04;;;;;;;20.73;6.03;;;6.20;99.90;;;;;;5071394;28;20201;-80
2021/04/23 06:56:30;;;;;;;19.17;6.50;;;6.30;99.90;;;;;;5073189;28;20210;-81
2021/04/23 06:58:57;;;;;;;16.60;5.83;;;6.40;99.90;;;;;;5073578;28;20297;-80
2021/04/23 07:01:27;;;;;;;15.73;5.90;;;6.40;99.90;;;;;;5092956;28;20595;-81
2021/04/23 07:03:53;;;;;;;28.40;6.43;;;6.40;99.90;;;;;;5093609;28;20249;-81
2021/04/23 07:06:21;;;;;;;15.40;6.00;;;6.40;99.90;;;;;;5093935;28;20686;-81
2021/04/23 07:08:47;;;;;;;17.97;6.00;;;6.60;99.90;;;;;;5091686;28;20204;-82
2021/04/23 07:11:16;;;;;;;15.63;5.53;;;6.60;99.90;;;;;;5074026;28;20308;-80
2021/04/23 07:13:42;;;;;;;14.90;5.23;;;6.60;99.90;;;;;;5074096;28;20677;-82
2021/04/23 07:16:09;;;;;;;16.37;5.63;;;6.60;99.90;;;;;;5073731;28;20240;-81
2021/04/23 07:18:35;;;;;;;17.80;6.10;;;6.70;99.90;;;;;;5073805;28;20285;-81
2021/04/23 07:21:02;;;;;;;19.27;5.97;;;6.80;99.90;;;;;;5073863;28;20205;-81
2021/04/23 07:23:29;;;;;;;12.17;5.57;;;6.90;99.90;;;;;;5073033;28;20205;-81
2021/04/23 07:25:56;;;;;;;13.00;5.63;;;6.90;99.90;;;;;;5073480;28;20197;-81
2021/04/23 07:28:22;;;;;;;17.03;5.93;;;7.00;99.90;;;;;;5073175;28;20641;-81
2021/04/23 07:30:48;;;;;;;12.80;5.70;;;7.10;99.90;;;;;;5073058;28;20282;-81
2021/04/23 07:33:15;;;;;;;16.00;5.53;;;7.30;99.90;;;;;;5072654;28;20196;-81
2021/04/23 07:35:44;;;;;;;14.70;5.50;;;7.40;99.90;;;;;;5073504;28;20210;-83
2021/04/23 07:38:11;;;;;;;19.67;5.30;;;7.50;99.90;;;;;;5073302;28;20201;-81
2021/04/23 07:40:38;;;;;;;13.57;4.90;;;7.60;99.90;;;;;;5074364;28;20339;-80
2021/04/23 07:43:05;;;;;;;9.40;4.53;;;7.70;99.90;;;;;;5099862;28;20192;-80
2021/04/23 07:45:31;;;;;;;14.23;5.77;;;7.70;99.90;;;;;;5083533;28;20287;-81
2021/04/23 07:47:58;;;;;;;18.27;5.30;;;7.70;99.90;;;;;;5073410;28;20292;-83
2021/04/23 07:50:26;;;;;;;13.63;4.57;;;7.70;99.90;;;;;;5072600;28;20221;-81
2021/04/23 07:52:54;;;;;;;8.07;4.73;;;7.80;99.90;;;;;;5072795;28;20288;-82
2021/04/23 07:55:22;;;;;;;14.60;5.63;;;7.80;99.90;;;;;;5073735;28;20198;-81
2021/04/23 07:57:52;;;;;;;12.83;4.63;;;7.80;99.90;;;;;;5073180;28;20288;-82
2021/04/23 08:00:20;;;;;;;9.43;4.27;;;7.80;99.90;;;;;;5073039;28;20209;-83
2021/04/23 08:02:47;;;;;;;12.63;4.77;;;7.80;99.90;;;;;;5073132;28;20215;-81
2021/04/23 08:05:16;;;;;;;10.73;4.53;;;7.70;99.90;;;;;;5072988;28;20268;-81
2021/04/23 08:07:46;;;;;;;10.73;4.23;;;7.80;99.90;;;;;;5073667;28;20232;-82
2021/04/23 08:10:14;;;;;;;14.03;5.30;;;8.00;99.90;;;;;;5072797;28;20224;-82
2021/04/23 08:12:41;;;;;;;14.67;4.07;;;8.10;99.90;;;;;;5072481;28;20204;-81
2021/04/23 08:15:10;;;;;;;13.20;4.13;;;8.20;99.90;;;;;;5073162;28;20196;-81
2021/04/23 08:17:37;;;;;;;12.07;4.03;;;8.40;99.90;;;;;;5073704;28;20206;-82
2021/04/23 08:20:04;;;;;;;12.37;3.57;;;9.30;99.90;;;;;;5073443;28;20195;-81
2021/04/23 08:22:31;;;;;;;14.03;4.07;;;10.80;99.90;;;;;;5072806;28;20676;-81
2021/04/23 08:24:58;;;;;;;11.67;4.20;;;12.50;99.90;;;;;;5072362;28;20574;-80
2021/04/23 08:27:24;;;;;;;13.40;3.73;;;13.60;99.90;;;;;;5072281;28;20213;-80
2021/04/23 08:29:52;;;;;;;15.60;4.60;;;14.60;99.90;;;;;;5072015;28;20700;-81
2021/04/23 08:32:20;;;;;;;10.03;3.90;;;15.20;99.90;;;;;;5071930;28;20621;-81
2021/04/23 08:34:46;;;;;;;12.37;4.30;;;16.20;99.90;;;;;;5072162;28;20191;-81
2021/04/23 08:37:13;;;;;;;10.70;4.20;;;16.50;99.90;;;;;;5067224;28;20282;-78
2021/04/23 08:39:39;;;;;;;12.47;4.50;;;16.90;99.90;;;;;;5091259;28;20240;-79
2021/04/23 08:42:06;;;;;;;12.17;4.00;;;16.80;99.90;;;;;;5091962;28;20205;-79
2021/04/23 08:44:33;;;;;;;11.60;4.47;;;17.10;99.90;;;;;;5077442;28;20223;-80
2021/04/23 08:47:00;;;;;;;9.57;4.03;;;17.50;99.90;;;;;;5092070;28;20642;-80
2021/04/23 08:49:27;;;;;;;13.30;4.30;;;17.80;99.90;;;;;;5092306;28;20291;-79
2021/04/23 08:51:54;;;;;;;16.33;4.50;;;17.70;99.90;;;;;;5092179;28;20662;-80
2021/04/23 08:54:22;;;;;;;9.43;4.00;;;17.50;99.90;;;;;;5075196;28;20707;-80
2021/04/23 08:56:49;;;;;;;13.57;3.93;;;17.50;99.90;;;;;;5072106;28;20730;-79
2021/04/23 08:59:15;;;;;;;9.53;3.43;;;17.30;99.90;;;;;;5072454;28;20307;-80
2021/04/23 09:01:42;;;;;;;10.17;4.07;;;17.20;99.90;;;;;;5075423;28;20287;-80
2021/04/23 09:04:08;;;;;;;16.10;4.33;;;16.80;99.90;;;;;;5075568;28;20203;-80
2021/04/23 09:06:35;;;;;;;7.50;3.63;;;16.80;99.90;;;;;;5075941;28;20191;-80
2021/04/23 09:09:08;;;;;;;13.07;3.43;;;17.50;99.90;;;;;;5075477;28;20234;-80
2021/04/23 09:11:37;;;;;;;10.30;3.87;;;17.90;99.90;;;;;;5075804;28;20223;-80
2021/04/23 09:14:05;;;;;;;12.30;4.20;;;18.10;99.90;;;;;;5074986;28;20192;-79
2021/04/23 09:16:52;;;;;;;15.57;3.77;;;18.60;99.90;;;;;;5075561;28;20203;-80
2021/04/23 09:19:22;;;;;;;8.40;3.40;;;18.50;99.90;;;;;;5075330;28;20203;-80
2021/04/23 09:21:53;;;;;;;10.40;3.80;;;18.30;99.90;;;;;;5075706;28;20566;-80
2021/04/23 09:24:28;;;;;;;9.60;3.67;;;19.90;99.90;;;;;;5075064;28;20195;-81
2021/04/23 09:26:56;;;;;;;6.03;3.20;;;20.70;99.90;;;;;;5075447;28;20278;-80
2021/04/23 09:29:34;;;;;;;8.60;3.50;;;19.70;99.90;;;;;;5075340;28;20195;-80
2021/04/23 09:32:13;;;;;;;10.43;3.90;;;19.40;99.90;;;;;;5074929;28;20223;-80
2021/04/23 09:34:50;;;;;;;8.80;3.60;;;19.60;99.90;;;;;;5075423;28;20302;-80
2021/04/23 09:37:19;;;;;;;11.70;3.60;;;19.00;99.90;;;;;;5075321;28;20195;-79
2021/04/23 09:39:46;;;;;;;14.97;3.70;;;18.80;99.90;;;;;;5074912;28;20582;-80
2021/04/23 09:42:15;;;;;;;8.87;3.70;;;18.50;99.90;;;;;;5074973;28;20210;-80
2021/04/23 09:44:43;;;;;;;13.63;3.57;;;18.00;99.90;;;;;;5075049;28;20191;-80
2021/04/23 09:47:13;;;;;;;7.97;3.20;;;17.70;99.90;;;;;;5075120;28;20223;-80
2021/04/23 09:49:41;;;;;;;10.80;3.80;;;18.50;99.90;;;;;;5075167;28;20211;-80
2021/04/23 09:52:09;;;;;;;10.50;3.30;;;19.40;99.90;;;;;;5074989;28;20298;-80
2021/04/23 09:54:37;;;;;;;11.70;4.17;;;19.70;99.90;;;;;;5074712;28;20195;-80
2021/04/23 09:57:13;;;;;;;9.67;3.30;;;19.80;99.90;;;;;;5073714;28;20202;-80
2021/04/23 09:59:56;;;;;;;19.97;4.03;;;20.10;99.90;;;;;;5073951;28;20657;-80
2021/04/23 10:02:25;;;;;;;10.40;3.30;;;19.00;99.90;;;;;;5074410;28;20282;-80
2021/04/23 10:04:52;;;;;;;10.67;3.80;;;19.00;99.90;;;;;;5074731;28;20298;-80
2021/04/23 10:07:23;;;;;;;12.13;4.00;;;18.60;99.90;;;;;;5074310;28;20207;-80
2021/04/23 10:09:59;;;;;;;17.63;3.57;;;19.00;99.90;;;;;;5074353;28;20291;-81
2021/04/23 10:12:32;;;;;;;11.90;3.57;;;18.80;99.90;;;;;;5073270;28;20669;-80
2021/04/23 10:15:01;;;;;;;13.00;3.93;;;19.00;99.90;;;;;;5074694;28;20234;-80
2021/04/23 10:17:27;;;;;;;6.60;3.60;;;19.00;99.90;;;;;;5074003;28;20253;-80
2021/04/23 10:19:54;;;;;;;8.90;3.57;;;18.90;99.90;;;;;;5074006;28;20234;-81
2021/04/23 10:22:21;;;;;;;10.63;3.53;;;19.00;99.90;;;;;;5074539;28;20713;-80
2021/04/23 10:24:49;;;;;;;15.43;4.10;;;19.50;99.90;;;;;;5074289;28;20285;-80
2021/04/23 10:27:17;;;;;;;11.23;3.60;;;19.30;99.90;;;;;;5073824;28;20249;-80
2021/04/23 10:29:45;;;;;;;7.97;3.73;;;20.40;99.90;;;;;;5073852;28;20240;-81
2021/04/23 10:32:12;;;;;;;9.37;4.10;;;20.40;99.90;;;;;;5073907;28;20290;-80
2021/04/23 10:34:39;;;;;;;8.93;3.50;;;20.80;99.90;;;;;;5074344;28;20200;-82
2021/04/23 10:37:06;;;;;;;10.80;4.07;;;19.50;99.90;;;;;;5074844;28;20207;-84
2021/04/23 10:39:43;;;;;;;8.83;3.40;;;20.40;99.90;;;;;;5073885;28;20645;-84
2021/04/23 10:42:46;;;;;;;7.77;3.30;;;21.10;99.90;;;;;;5074540;28;20248;-83
2021/04/23 10:45:49;;;;;;;11.17;4.23;;;21.50;99.90;;;;;;5071383;28;20286;-84
2021/04/23 10:48:33;;;;;;;11.63;3.33;;;22.20;99.90;;;;;;5049813;28;20202;-84
2021/04/23 10:51:03;;;;;;;12.47;3.60;;;21.00;99.90;;;;;;5075537;28;20249;-84
2021/04/23 10:53:42;;;;;;;16.13;3.70;;;20.90;99.90;;;;;;5073790;28;20188;-85
2021/04/23 10:56:22;;;;;;;10.57;3.07;;;21.20;99.90;;;;;;5074169;28;20264;-84
2021/04/23 10:58:50;;;;;;;10.33;2.93;;;21.10;99.90;;;;;;5073718;28;20215;-83
2021/04/23 11:01:38;;;;;;;9.20;2.70;;;21.70;99.90;;;;;;5073741;28;20671;-83
2021/04/23 11:04:07;;;;;;;8.33;3.13;;;22.70;99.90;;;;;;5069252;28;20617;-84
2021/04/23 11:06:35;;;;;;;13.73;3.00;;;22.00;99.90;;;;;;5073795;28;20297;-83
2021/04/23 11:09:10;;;;;;;6.10;2.57;;;20.90;99.90;;;;;;5073423;28;20203;-84
2021/04/23 11:11:37;;;;;;;8.87;2.73;;;20.60;99.90;;;;;;5073336;28;20306;-85
2021/04/23 11:14:23;;;;;;;9.53;2.77;;;20.60;99.90;;;;;;5073481;28;20207;-83
2021/04/23 11:16:50;;;;;;;5.93;2.87;;;19.10;99.90;;;;;;5073371;28;20202;-83
2021/04/23 11:19:37;;;;;;;8.03;3.00;;;18.90;99.90;;;;;;5073238;28;20200;-83
2021/04/23 11:22:15;;;;;;;7.80;3.60;;;19.00;99.90;;;;;;5072719;28;20287;-82
2021/04/23 11:25:16;;;;;;;7.90;3.03;;;18.60;99.90;;;;;;5071962;28;20227;-83
2021/04/23 11:28:11;;;;;;;7.40;3.00;;;18.40;99.90;;;;;;5073506;28;20241;-83
2021/04/23 11:31:06;;;;;;;9.27;3.40;;;18.30;99.90;;;;;;5072914;28;20665;-83
2021/04/23 11:33:49;;;;;;;11.50;3.40;;;18.90;99.90;;;;;;5062410;28;20207;-82
2021/04/23 11:36:38;;;;;;;6.47;3.30;;;19.50;99.90;;;;;;5090607;28;20198;-82
2021/04/23 11:39:10;;;;;;;8.70;3.70;;;20.10;99.90;;;;;;5088349;28;20277;-83
2021/04/23 11:41:37;;;;;;;13.33;3.30;;;19.90;99.90;;;;;;5093453;28;20206;-83
2021/04/23 11:44:24;;;;;;;14.47;4.00;;;19.80;99.90;;;;;;5090008;28;20214;-83
2021/04/23 11:46:53;;;;;;;9.03;3.60;;;19.30;99.90;;;;;;5072580;28;20191;-83
2021/04/23 11:49:20;;;;;;;11.87;4.10;;;19.70;99.90;;;;;;5072762;28;20231;-83
2021/04/23 11:51:51;;;;;;;7.30;3.40;;;20.70;99.90;;;;;;5072506;28;20229;-83
2021/04/23 11:54:33;;;;;;;7.47;3.50;;;19.40;99.90;;;;;;5072627;28;20223;-83
2021/04/23 11:57:01;;;;;;;7.97;3.63;;;18.80;99.90;;;;;;5072451;28;20665;-83
2021/04/23 11:59:28;;;;;;;9.37;3.50;;;19.00;99.90;;;;;;5075256;28;20290;-84
2021/04/23 12:01:56;;;;;;;8.77;3.60;;;19.00;99.90;;;;;;5072614;28;20560;-83
2021/04/23 12:04:45;;;;;;;10.47;3.73;;;18.10;99.90;;;;;;5072765;28;20283;-84
2021/04/23 12:07:13;;;;;;;6.93;3.63;;;18.10;99.90;;;;;;5073189;28;20638;-83
2021/04/23 12:09:41;;;;;;;8.67;3.27;;;18.30;99.90;;;;;;5073063;28;20501;-83
2021/04/23 12:12:10;;;;;;;9.87;3.80;;;18.60;99.90;;;;;;5072477;28;20231;-83
2021/04/23 12:14:47;;;;;;;10.33;3.33;;;18.20;99.90;;;;;;5071978;28;20717;-85
2021/04/23 12:17:16;;;;;;;11.07;4.10;;;17.50;99.90;;;;;;5072681;28;20256;-84
2021/04/23 12:19:43;;;;;;;7.87;4.00;;;18.00;99.90;;;;;;5072447;28;20238;-83
2021/04/23 12:22:09;;;;;;;8.93;4.13;;;18.40;99.90;;;;;;5072672;28;20292;-83
2021/04/23 12:24:36;;;;;;;8.70;3.90;;;17.90;99.90;;;;;;5072458;28;20199;-83
2021/04/23 12:27:03;;;;;;;8.83;4.03;;;17.60;99.90;;;;;;5072386;28;20204;-84
2021/04/23 12:29:30;;;;;;;14.27;4.33;;;17.30;99.90;;;;;;5072543;28;20278;-84
2021/04/23 12:31:57;;;;;;;10.80;4.53;;;17.40;99.90;;;;;;5072264;28;20227;-83
2021/04/23 12:34:24;;;;;;;14.90;4.70;;;17.30;99.90;;;;;;5072373;28;20230;-83
2021/04/23 12:36:52;;;;;;;9.77;4.53;;;17.40;99.90;;;;;;5076405;28;20199;-82
2021/04/23 12:39:22;;;;;;;9.60;4.27;;;17.80;99.90;;;;;;5076418;28;20199;-83
2021/04/23 12:41:52;;;;;;;9.87;4.63;;;17.90;99.90;;;;;;5076101;28;20191;-83
2021/04/23 12:44:20;;;;;;;5.70;3.60;;;17.90;99.90;;;;;;5076301;28;20286;-83
2021/04/23 12:46:48;;;;;;;14.87;5.53;;;18.00;99.90;;;;;;5076037;28;20564;-83
2021/04/23 12:49:17;;;;;;;8.70;4.80;;;18.20;99.90;;;;;;5076097;28;20206;-83
2021/04/23 12:51:51;;;;;;;10.03;4.50;;;18.00;99.90;;;;;;5076322;28;20225;-83
2021/04/23 12:54:21;;;;;;;16.60;4.90;;;18.10;99.90;;;;;;5081014;28;20580;-84